Home > Products > Valid Products > MTR

000
SAUS42 KCHS 301557
MTRNBC
METAR KNBC 301556Z 05004KT 7SM FEW140 21/16 A2998 RMK AO2 SLP149
WIND DATA ESTIMATED T02060156 $





000
SAUS42 KCHS 301457
MTRNBC
METAR KNBC 301456Z 05005KT 7SM FEW015 FEW250 18/14 A2998 RMK AO2
SLP149 WIND DATA ESTIMATED T01780133 $





000
SAUS42 KCHS 301357
MTRNBC
METAR KNBC 301356Z 04007KT 7SM FEW012 FEW100 BKN250 17/15 A2998 RMK
AO2 SLP149 WND DATA ESTIMATED T01720150 $





000
SAUS42 KCHS 301337
MTRNBC
SPECI KNBC 301336Z 02007KT 7SM SCT012 SCT060 BKN250 17/15 A2997 RMK
AO2 WND DATA ESTIMATED FIRST T01720150 $





000
SAUS42 KCHS 301257
MTRNBC
METAR KNBC 301256Z AUTO RMK AO2 SLPNO PWINO FZRANO TSNO $





000
SAUS42 KCHS 301157
MTRNBC
METAR KNBC 301156Z AUTO RMK AO2 SLPNO PWINO FZRANO TSNO $





000
SAUS42 KCHS 301057
MTRNBC
METAR KNBC 301056Z AUTO RMK AO2 SLPNO PWINO FZRANO TSNO $





000
SAUS42 KCHS 301057
MTRNBC
METAR KNBC 301056Z AUTO RMK AO2 SLPNO PWINO FZRANO TSNO $





000
SAUS42 KCHS 300957
MTRNBC
METAR KNBC 300956Z AUTO RMK AO2 SLPNO PWINO FZRANO TSNO $





000
SAUS42 KCHS 300857
MTRNBC
METAR KNBC 300856Z AUTO RMK AO2 SLPNO PWINO FZRANO TSNO $





000
SAUS42 KCHS 300757
MTRNBC
METAR KNBC 300756Z AUTO RMK AO2 SLPNO PWINO FZRANO TSNO $





000
SAUS42 KCHS 300657
MTRNBC
METAR KNBC 300656Z AUTO RMK AO2 SLPNO PWINO FZRANO TSNO $





000
SAUS42 KCHS 300557
MTRNBC
METAR KNBC 300556Z 00000KT 7SM BKN060 22/20 A2990 RMK AO2 SLP122
LAST WIND DATA ESTIMATED T02170200 58007 $





000
SAUS42 KCHS 300457
MTRNBC
METAR KNBC 300456Z 22004KT 7SM SCT050 22/19 A2991 RMK AO2 SLP125
WIND DATA ESTIMATED T02220189 $





000
SAUS42 KCHS 300457
MTRNBC
METAR KNBC 300456Z 22004KT 7SM SCT050 22/19 A2991 RMK AO2 SLP125
WIND DATA ESTIMATED T02220189 $





000
SAUS42 KCHS 300357
MTRNBC
METAR KNBC 300356Z 00000KT 7SM SCT120 22/20 A2992 RMK AO2 SLP128
WIND DATA ESTIMATED T02220194 $





000
SAUS42 KCHS 300257
MTRNBC
METAR KNBC 300256Z 00000KT 7SM FEW120 22/19 A2992 RMK AO2 SLP128
WIND DATA ESTIMATED T02220189 54000 $





000
SAUS42 KCHS 300157
MTRNBC
METAR KNBC 300156Z 00000KT 7SM FEW120 SCT250 21/20 A2992 RMK AO2
SLP128 WIND DATA ESTIMATED T02170200 $





000
SAUS42 KCHS 300057
MTRNBC
METAR KNBC 300056Z 00000KT 7SM SCT120 22/19 A2992 RMK AO2 SLP128
WIND DATA ESTIMATED T02220194 $





000
SAUS42 KCHS 292357
MTRNBC
METAR KNBC 292356Z 00000KT 7SM SCT120 22/19 A2992 RMK AO2 SLP128
WIND DATA ESTIMATED T02220189 57007 $





000
SAUS42 KCHS 292257
MTRNBC
METAR KNBC 292256Z 00000KT 7SM FEW050 SCT090 SCT250 23/19 A2992 RMK
AO2 SLP128 WIND DATA ESTIMATED T02330189 $





000
SAUS42 KCHS 292157
MTRNBC
METAR KNBC 292156Z VRB03KT 7SM SCT090 SCT140 BKN250 25/19 A2994 RMK
AO2 SLP135 WND DATA ESTIMATED T02440194 $





000
SAUS42 KCHS 292057
MTRNBC
METAR KNBC 292056Z 17004KT 7SM FEW035 SCT120 BKN250 27/20 A2994 RMK
AO2 SLP135 WND DATA ESTIMATED T02720194 57027 $





000
SAUS42 KCHS 291957
MTRNBC
METAR KNBC 291956Z 21005KT 7SM FEW036 FEW120 BKN250 28/17 A2996 RMK
AO2 SLP142 WIND DATA ESTIMATED T02780167 $





000
SAUS42 KCHS 291857
MTRNBC
METAR KNBC 291856Z 20005KT 7SM FEW045 FEW140 BKN250 29/17 A3000 RMK
AO2 SLP155 WND DATA ESTIMATED T02890172 $





000
SAUS42 KCHS 291757
MTRNBC
METAR KNBC 291656Z COR 25006KT 7SM FEW036 FEW120 BKN250 28/18 A3006
RMK AO2 SLP176 WIND DATA ESTIMATED T02780183 $





000
SAUS42 KCHS 291657
MTRNBC
METAR KNBC 291656Z 25006KT 7SM FEW036 FEW120 BKN250 28/18 A3006 RMK
AO2 SLP176 WIND DATA ESTIMATED T02780183 $





000
SAUS42 KCHS 291557
MTRNBC
METAR KNBC 291556Z 23006KT 7SM FEW035 SCT140 BKN250 25/20 A3008 RMK
AO2 SLP183 WND DATA ESTIMATED T02500206 $





000
SAUS42 KCHS 291457
MTRNBC
METAR KNBC 291456Z 24005KT 7SM FEW120 OVC250 24/20 A3010 RMK AO2
SLP189 WIND DATA ESTIMATED T02390200 $





000
SAUS42 KCHS 291357
MTRNBC
METAR KNBC 291356Z 25006KT 7SM FEW030 SCT120 OVC250 21/19 A3010 RMK
AO2 SLP189 WND DATA ESTIMATED T02110194 $





000
SAUS42 KCHS 291341
MTRNBC
SPECI KNBC 291340Z 25005KT 7SM FEW030 SCT120 OVC250 21/19 A3006 RMK
AO2 WND DATA ESTIMATED FIRST T02060194 $





000
SAUS42 KCHS 291257
MTRNBC
METAR KNBC 291256Z AUTO RMK AO2 SLPNO PWINO FZRANO TSNO $





000
SAUS42 KCHS 291157
MTRNBC
METAR KNBC 291156Z AUTO RMK AO2 SLPNO PWINO FZRANO TSNO $





000
SAUS42 KCHS 291057
MTRNBC
METAR KNBC 291056Z AUTO RMK AO2 SLPNO PWINO FZRANO TSNO $





000
SAUS42 KCHS 290957
MTRNBC
METAR KNBC 290956Z AUTO RMK AO2 SLPNO PWINO FZRANO TSNO $





000
SAUS42 KCHS 290857
MTRNBC
METAR KNBC 290856Z AUTO RMK AO2 SLPNO PWINO FZRANO TSNO $





000
SAUS42 KCHS 290757
MTRNBC
METAR KNBC 290756Z AUTO RMK AO2 SLPNO PWINO FZRANO TSNO $





000
SAUS42 KCHS 290657
MTRNBC
METAR KNBC 290656Z AUTO RMK AO2 SLPNO PWINO FZRANO TSNO $





000
SAUS42 KCHS 290557
MTRNBC
METAR KNBC 290556Z 00000KT 7SM CLR 21/20 A3002 RMK AO2 SLP162
T02110200 56020 $





000
SAUS42 KCHS 290457
MTRNBC
METAR KNBC 290456Z 00000KT 7SM CLR 21/19 A3003 RMK AO2 SLP166 WIND
DATA ESTIMATED T02110194 $





000
SAUS42 KCHS 290357
MTRNBC
METAR KNBC 290356Z 00000KT 7SM CLR 23/20 A3006 RMK AO2 SLP176 WIND
DATA ESTIMATED T02330200 $





000
SAUS42 KCHS 290257
MTRNBC
METAR KNBC 290256Z 00000KT 7SM CLR 21/19 A3008 RMK AO2 SLP183 WIND
DATA ESTIMATED T02110189 53010 $





000
SAUS42 KCHS 290157
MTRNBC
METAR KNBC 290156Z 00000KT 7SM CLR 21/18 A3006 RMK AO2 SLP176
T02110183 $





000
SAUS42 KCHS 290057
MTRNBC
METAR KNBC 290056Z 00000KT 7SM CLR 22/18 A3006 RMK AO2 SLP176 WIND
DATA ESTIMATED T02170178 $





000
SAUS42 KCHS 282357
MTRNBC
METAR KNBC 282356Z 17003KT 7SM CLR 21/17 A3005 RMK AO2 SLP172
T02110172 55020 $





000
SAUS42 KCHS 282257
MTRNBC
METAR KNBC 282256Z 00000KT 7SM FEW250 23/20 A3004 RMK AO2 SLP169
WIND DATA ESTIMATED T02330200 $





000
SAUS42 KCHS 282158
MTRNBC
METAR KNBC 282156Z 18004KT 7SM FEW250 27/20 A3004 RMK AO2 PRESFR
SLP169 T02670200 $





000
SAUS42 KCHS 282057
MTRNBC
METAR KNBC 282056Z VRB03KT 7SM CLR 28/17 A3010 RMK AO2 SLP193 WIND
DATA ESTIMATED T02780167 56015 $





000
SAUS42 KCHS 281957
MTRNBC
METAR KNBC 281956Z AUTO A3011 RMK AO2 SLP198 PWINO FZRANO TSNO $





000
SAUS42 KCHS 281857
MTRNBC
METAR KNBC 281856Z AUTO A3012 RMK AO2 SLP201 PWINO FZRANO TSNO $





000
SAUS42 KCHS 281757
MTRNBC
METAR KNBC 281756Z AUTO A3014 RMK AO2 SLP208 58014 PWINO FZRANO TSNO
$





000
SAUS42 KCHS 281657
MTRNBC
METAR KNBC 281656Z AUTO A3016 RMK AO2 SLP215 PWINO FZRANO TSNO $





000
SAUS42 KCHS 281657
MTRNBC
METAR KNBC 281656Z AUTO A3016 RMK AO2 SLP215 PWINO FZRANO TSNO $





000
SAUS42 KCHS 281557
MTRNBC
METAR KNBC 281556Z AUTO A3017 RMK AO2 SLP218 PWINO FZRANO TSNO $





000
SAUS42 KCHS 281557
MTRNBC
METAR KNBC 281556Z AUTO A3017 RMK AO2 SLP218 PWINO FZRANO TSNO $





000
SAUS42 KCHS 281457
MTRNBC
METAR KNBC 281456Z AUTO A3018 RMK AO2 SLP222 51010 PWINO FZRANO TSNO
$





000
SAUS42 KCHS 281358
MTRNBC
METAR KNBC 281356Z AUTO A3018 RMK AO2 SLP222 PWINO FZRANO TSNO $





000
SAUS42 KCHS 281257
MTRNBC
METAR KNBC 281256Z AUTO A3017 RMK AO2 SLP218 PWINO FZRANO TSNO $





000
SAUS42 KCHS 281157
MTRNBC
METAR KNBC 281156Z AUTO A3015 RMK AO2 SLP212 6//// 7//// PWINO
FZRANO TSNO PNO $





000
SAUS42 KCHS 281057
MTRNBC
METAR KNBC 281056Z AUTO A3014 RMK AO2 SLP208 PWINO FZRANO TSNO $





000
SAUS42 KCHS 280957
MTRNBC
METAR KNBC 280956Z AUTO A3013 RMK AO2 SLP205 PWINO FZRANO TSNO $





000
SAUS42 KCHS 280957
MTRNBC
METAR KNBC 280956Z AUTO A3013 RMK AO2 SLP205 PWINO FZRANO TSNO $





000
SAUS42 KCHS 280857
MTRNBC
METAR KNBC 280856Z AUTO A3012 RMK AO2 SLP201 51005 PWINO FZRANO TSNO
$





000
SAUS42 KCHS 280757
MTRNBC
METAR KNBC 280756Z AUTO A3012 RMK AO2 SLP201 PWINO FZRANO TSNO $





000
SAUS42 KCHS 280657
MTRNBC
METAR KNBC 280656Z AUTO A3011 RMK AO2 SLP198 PWINO FZRANO TSNO $





000
SAUS42 KCHS 280558
MTRNBC
METAR KNBC 280556Z AUTO 00000KT 7SM MIFG CLR 17/ A3011 RMK AO2
SLP196 LAST T0167 PWINO TSNO $





000
SAUS42 KCHS 280457
MTRNBC
METAR KNBC 280456Z 00000KT 4SM BR CLR 17/ A3011 RMK AO2 SLP197 T0172
402890122 $





000
SAUS42 KCHS 280457
MTRNBC
METAR KNBC 280456Z 00000KT 4SM BR CLR 17/ A3011 RMK AO2 SLP197 T0172
402890122 $





000
SAUS42 KCHS 280157
MTRNBC
METAR KNBC 280156Z 00000KT 10SM CLR 18/17 A3011 RMK AO2 SLP196
T01830172 $





000
SAUS42 KCHS 280157
MTRNBC
METAR KNBC 280156Z 00000KT 10SM CLR 18/17 A3011 RMK AO2 SLP196
T01830172 $





000
SAUS42 KCHS 280057
MTRNBC
METAR KNBC 280056Z 00000KT 10SM CLR 19/17 A3010 RMK AO2 SLP193
T01890172 $





000
SAUS42 KCHS 272357
MTRNBC
METAR KNBC 272356Z 00000KT 10SM CLR 19/17 A3008 RMK AO2 SLP187
T01940172 10289 20194 53014 $





000
SAUS42 KCHS 272257
MTRNBC
METAR KNBC 272256Z 12003KT 10SM CLR 22/18 A3007 RMK AO2 SLP182
T02170178 $





000
SAUS42 KCHS 272157
MTRNBC
METAR KNBC 272156Z 10004KT 10SM CLR 25/19 A3005 RMK AO2 SLP176
T02500189 $





000
SAUS42 KCHS 272057
MTRNBC
METAR KNBC 272056Z 07003KT 10SM CLR 28/19 A3004 RMK AO2 SLP173
T02780194 56005 $





000
SAUS42 KCHS 271958
MTRNBC
METAR KNBC 271956Z 13003KT 10SM CLR 28/18 A3004 RMK AO2 SLP173
T02830178 $





000
SAUS42 KCHS 271857
MTRNBC
METAR KNBC 271856Z 14003KT 10SM CLR 28/17 A3005 RMK AO2 SLP175
T02830167 $





000
SAUS42 KCHS 271757
MTRNBC
METAR KNBC 271756Z 15003KT 10SM CLR 28/17 A3006 RMK AO2 SLP178
T02780167 10283 20128 58012 $





000
SAUS42 KCHS 271657
MTRNBC
METAR KNBC 271656Z 12003KT 10SM CLR 26/17 A3008 RMK AO2 SLP185
T02610167 $





000
SAUS42 KCHS 271657
MTRNBC
METAR KNBC 271656Z 12003KT 10SM CLR 26/17 A3008 RMK AO2 SLP185
T02610167 $





    US Dept of Commerce
    National Oceanic and Atmospheric Administration
    National Weather Service
    1325 East West Highway
    Silver Spring, MD 20910
    Page Author: NWS Internet Services Team
Disclaimer
Information Quality
Credits
Glossary
Privacy Policy
Freedom of Information Act (FOIA)
About Us
Career Opportunities